createdAt,value
2022-12-01T00:01:06.691Z,13.93
2022-12-01T00:03:33.635Z,13.95
2022-12-01T00:06:02.003Z,15.27
2022-12-01T00:08:29.006Z,14.38
2022-12-01T00:10:55.426Z,14.75
2022-12-01T00:13:22.029Z,14.23
2022-12-01T00:15:48.378Z,14.73
2022-12-01T00:18:14.697Z,14.38
2022-12-01T00:20:41.070Z,14.38
2022-12-01T00:23:07.418Z,13.85
2022-12-01T00:25:33.783Z,14.60
2022-12-01T00:28:00.124Z,14.77
2022-12-01T00:30:26.498Z,14.35
2022-12-01T00:32:52.884Z,12.90
2022-12-01T00:35:19.373Z,14.00
2022-12-01T00:37:45.758Z,13.00
2022-12-01T00:40:12.697Z,14.43
2022-12-01T00:42:39.002Z,12.02
2022-12-01T00:45:06.051Z,13.45
2022-12-01T00:47:32.430Z,13.77
2022-12-01T00:49:58.736Z,14.60
2022-12-01T00:52:25.147Z,14.38
2022-12-01T00:54:51.567Z,13.10
2022-12-01T00:57:17.914Z,13.90
2022-12-01T00:59:44.222Z,14.37
2022-12-01T01:02:10.697Z,12.35
2022-12-01T01:04:37.591Z,14.40
2022-12-01T01:07:04.084Z,13.68
2022-12-01T01:09:32.143Z,14.02
2022-12-01T01:11:58.594Z,12.30
2022-12-01T01:14:25.386Z,13.00
2022-12-01T01:16:51.788Z,13.82
2022-12-01T01:19:18.489Z,13.80
2022-12-01T01:21:44.801Z,13.65
2022-12-01T01:24:11.156Z,13.05
2022-12-01T01:26:37.806Z,10.68
2022-12-01T01:29:07.686Z,11.07
2022-12-01T01:31:34.710Z,13.85
2022-12-01T01:34:01.337Z,13.18
2022-12-01T01:36:27.733Z,12.80
2022-12-01T01:38:55.153Z,13.63
2022-12-01T01:41:22.592Z,13.88
2022-12-01T01:43:52.974Z,13.05
2022-12-01T01:46:22.257Z,13.13
2022-12-01T01:49:09.463Z,12.10
2022-12-01T01:51:40.624Z,12.52
2022-12-01T01:54:32.912Z,13.20
2022-12-01T01:57:01.517Z,14.02
2022-12-01T01:59:31.542Z,12.63
2022-12-01T02:02:06.397Z,12.47
2022-12-01T02:04:35.942Z,14.50
2022-12-01T02:07:03.029Z,12.95
2022-12-01T02:09:29.386Z,13.25
2022-12-01T02:12:14.179Z,12.93
2022-12-01T02:15:08.506Z,11.40
2022-12-01T02:17:56.461Z,13.20
2022-12-01T02:20:39.547Z,13.55
2022-12-01T02:23:44.077Z,13.18
2022-12-01T02:26:28.340Z,11.10
2022-12-01T02:29:04.169Z,14.77
2022-12-01T02:31:55.302Z,12.65
2022-12-01T02:34:40.330Z,15.38
2022-12-01T02:37:15.978Z,13.52
2022-12-01T02:39:57.869Z,13.07
2022-12-01T02:43:12.128Z,13.18
2022-12-01T02:45:45.670Z,14.27
2022-12-01T02:48:18.779Z,14.77
2022-12-01T02:50:46.410Z,13.93
2022-12-01T02:53:16.973Z,13.55
2022-12-01T02:55:52.462Z,14.23
2022-12-01T02:58:19.452Z,14.65
2022-12-01T03:01:15.235Z,13.68
2022-12-01T03:03:55.336Z,12.75
2022-12-01T03:06:41.390Z,14.70
2022-12-01T03:09:29.179Z,11.50
2022-12-01T03:12:12.649Z,14.55
2022-12-01T03:14:46.610Z,15.30
2022-12-01T03:17:18.913Z,12.30
2022-12-01T03:20:12.557Z,14.32
2022-12-01T03:22:49.322Z,13.97
2022-12-01T03:25:17.505Z,12.88
2022-12-01T03:28:13.468Z,13.93
2022-12-01T03:30:36.527Z,14.68
2022-12-01T03:33:13.046Z,13.15
2022-12-01T03:35:52.914Z,14.25
2022-12-01T03:38:23.858Z,13.55
2022-12-01T03:40:54.233Z,13.65
2022-12-01T03:43:26.583Z,13.80
2022-12-01T03:46:07.458Z,14.68
2022-12-01T03:48:34.255Z,7.85
2022-12-01T03:51:13.926Z,13.73
2022-12-01T03:53:46.038Z,13.43
2022-12-01T03:56:15.828Z,13.40
2022-12-01T03:58:45.408Z,13.20
2022-12-01T04:01:12.398Z,12.63
2022-12-01T04:03:38.866Z,11.25
2022-12-01T04:06:05.624Z,13.00
2022-12-01T04:08:33.720Z,13.40
2022-12-01T04:11:00.352Z,12.65
2022-12-01T04:13:26.827Z,14.45
2022-12-01T04:15:54.623Z,14.23
2022-12-01T04:18:21.653Z,15.27
2022-12-01T04:20:49.364Z,13.45
2022-12-01T04:23:36.024Z,13.23
2022-12-01T04:26:04.388Z,13.23
2022-12-01T04:28:30.766Z,13.23
2022-12-01T04:30:57.132Z,13.15
2022-12-01T04:33:23.473Z,14.38
2022-12-01T04:35:57.537Z,14.43
2022-12-01T04:38:28.829Z,13.73
2022-12-01T04:40:56.770Z,14.52
2022-12-01T04:43:23.077Z,14.70
2022-12-01T04:45:49.397Z,13.38
2022-12-01T04:48:15.722Z,14.52
2022-12-01T04:50:42.111Z,13.30
2022-12-01T04:53:08.425Z,14.52
2022-12-01T04:55:39.294Z,14.63
2022-12-01T04:58:05.975Z,15.10
2022-12-01T05:00:32.796Z,13.90
2022-12-01T05:03:00.319Z,13.25
2022-12-01T05:05:26.900Z,14.48
2022-12-01T05:07:53.279Z,14.75
2022-12-01T05:10:19.709Z,12.65
2022-12-01T05:12:46.331Z,14.18
2022-12-01T05:15:13.293Z,14.53
2022-12-01T05:17:40.003Z,13.23
2022-12-01T05:20:25.973Z,13.35
2022-12-01T05:23:09.785Z,14.30
2022-12-01T05:25:38.564Z,14.55
2022-12-01T05:28:06.421Z,12.97
2022-12-01T05:30:32.812Z,14.10
2022-12-01T05:32:59.194Z,14.52
2022-12-01T05:35:25.514Z,13.32
2022-12-01T05:37:51.896Z,13.85
2022-12-01T05:40:18.306Z,15.07
2022-12-01T05:42:44.702Z,14.98
2022-12-01T05:45:11.298Z,13.90
2022-12-01T05:47:37.668Z,13.25
2022-12-01T05:50:06.000Z,14.30
2022-12-01T05:52:35.051Z,14.70
2022-12-01T05:55:02.333Z,14.38
2022-12-01T05:57:28.791Z,14.80
2022-12-01T05:59:55.175Z,13.32
2022-12-01T06:02:21.715Z,15.55
2022-12-01T06:04:48.212Z,15.33
2022-12-01T06:07:14.586Z,13.95
2022-12-01T06:09:40.965Z,15.02
2022-12-01T06:12:07.376Z,13.73
2022-12-01T06:14:33.765Z,13.73
2022-12-01T06:17:00.136Z,12.83
2022-12-01T06:19:26.661Z,13.90
2022-12-01T06:21:53.022Z,14.65
2022-12-01T06:24:19.390Z,14.40
2022-12-01T06:26:45.757Z,14.30
2022-12-01T06:29:12.172Z,13.90
2022-12-01T06:31:38.610Z,13.23
2022-12-01T06:34:05.034Z,14.13
2022-12-01T06:36:31.473Z,12.68
2022-12-01T06:38:57.783Z,13.40
2022-12-01T06:41:24.116Z,15.23
2022-12-01T06:43:50.454Z,12.65
2022-12-01T06:46:16.922Z,14.32
2022-12-01T06:48:43.351Z,14.32
2022-12-01T06:51:11.021Z,13.18
2022-12-01T06:53:37.476Z,12.43
2022-12-01T06:56:04.858Z,13.80
2022-12-01T06:58:31.922Z,12.75
2022-12-01T07:00:59.065Z,14.82
2022-12-01T07:03:25.911Z,13.90
2022-12-01T07:05:59.926Z,13.93
2022-12-01T07:08:27.615Z,13.35
2022-12-01T07:10:59.142Z,14.40
2022-12-01T07:13:30.102Z,15.50
2022-12-01T07:15:59.590Z,14.02
2022-12-01T07:18:26.043Z,13.53
2022-12-01T07:20:52.359Z,14.98
2022-12-01T07:23:18.768Z,14.65
2022-12-01T07:25:45.258Z,15.55
2022-12-01T07:28:11.647Z,16.40
2022-12-01T07:30:38.113Z,13.63
2022-12-01T07:33:04.562Z,14.38
2022-12-01T07:35:30.865Z,13.90
2022-12-01T07:37:57.278Z,13.77
2022-12-01T07:40:23.796Z,14.05
2022-12-01T07:42:50.103Z,14.50
2022-12-01T07:45:16.457Z,12.55
2022-12-01T07:47:44.455Z,15.50
2022-12-01T07:50:11.267Z,15.57
2022-12-01T07:52:37.641Z,16.13
2022-12-01T07:55:04.288Z,14.87
2022-12-01T07:57:30.618Z,15.85
2022-12-01T07:59:57.014Z,16.17
2022-12-01T08:02:23.362Z,15.65
2022-12-01T08:04:49.767Z,15.52
2022-12-01T08:07:16.164Z,14.67
2022-12-01T08:09:42.610Z,16.23
2022-12-01T08:12:09.310Z,16.98
2022-12-01T08:14:35.662Z,17.17
2022-12-01T08:17:02.039Z,16.80
2022-12-01T08:19:29.286Z,17.37
2022-12-01T08:21:55.709Z,14.73
2022-12-01T08:24:22.057Z,15.52
2022-12-01T08:26:48.417Z,15.35
2022-12-01T08:29:19.973Z,17.73
2022-12-01T08:31:47.265Z,16.20
2022-12-01T08:34:13.620Z,18.83
2022-12-01T08:36:40.111Z,17.25
2022-12-01T08:39:07.900Z,16.35
2022-12-01T08:41:34.562Z,18.45
2022-12-01T08:44:01.748Z,17.17
2022-12-01T08:46:31.932Z,16.90
2022-12-01T08:48:58.431Z,18.52
2022-12-01T08:51:25.656Z,17.77
2022-12-01T08:53:52.300Z,17.33
2022-12-01T08:56:23.958Z,16.57
2022-12-01T08:58:51.576Z,18.73
2022-12-01T09:01:19.149Z,18.35
2022-12-01T09:03:45.590Z,15.90
2022-12-01T09:06:20.622Z,18.08
2022-12-01T09:08:48.513Z,17.48
2022-12-01T09:11:17.529Z,17.13
2022-12-01T09:13:48.632Z,18.98
2022-12-01T09:16:18.785Z,18.33
2022-12-01T09:18:46.513Z,19.05
2022-12-01T09:21:21.822Z,18.95
2022-12-01T09:23:48.437Z,18.75
2022-12-01T09:26:18.398Z,17.95
2022-12-01T09:28:45.919Z,17.58
2022-12-01T09:31:14.318Z,19.55
2022-12-01T09:33:40.744Z,17.50
2022-12-01T09:36:08.989Z,19.15
2022-12-01T09:38:36.594Z,19.98
2022-12-01T09:41:07.600Z,18.63
2022-12-01T09:43:46.833Z,19.55
2022-12-01T09:46:25.943Z,19.85
2022-12-01T09:48:54.041Z,18.83
2022-12-01T09:51:23.569Z,19.50
2022-12-01T09:53:52.658Z,19.42
2022-12-01T09:56:31.988Z,18.73
2022-12-01T09:59:01.421Z,18.48
2022-12-01T10:01:32.594Z,20.43
2022-12-01T10:04:05.022Z,21.60
2022-12-01T10:06:38.531Z,19.02
2022-12-01T10:09:28.249Z,20.13
2022-12-01T10:12:01.750Z,16.70
2022-12-01T10:14:32.719Z,18.70
2022-12-01T10:17:07.838Z,17.85
2022-12-01T10:20:16.710Z,18.63
2022-12-01T10:23:01.470Z,19.30
2022-12-01T10:25:33.087Z,20.33
2022-12-01T10:27:59.457Z,20.03
2022-12-01T10:30:26.279Z,20.60
2022-12-01T10:33:25.008Z,19.48
2022-12-01T10:35:52.312Z,20.33
2022-12-01T10:38:28.369Z,17.27
2022-12-01T10:40:59.659Z,18.90
2022-12-01T10:43:34.351Z,21.02
2022-12-01T10:46:12.303Z,18.35
2022-12-01T10:48:53.829Z,18.52
2022-12-01T10:51:22.518Z,20.08
2022-12-01T10:53:50.011Z,18.60
2022-12-01T10:56:18.270Z,19.33
2022-12-01T10:58:51.846Z,19.67
2022-12-01T11:01:23.733Z,17.88
2022-12-01T11:03:54.566Z,19.08
2022-12-01T11:06:24.718Z,20.60
2022-12-01T11:08:57.447Z,18.75
2022-12-01T11:11:23.742Z,20.27
2022-12-01T11:13:50.850Z,20.50
2022-12-01T11:16:39.373Z,19.05
2022-12-01T11:19:30.072Z,19.87
2022-12-01T11:22:18.594Z,17.52
2022-12-01T11:24:55.615Z,17.15
2022-12-01T11:27:25.855Z,18.52
2022-12-01T11:29:56.002Z,16.90
2022-12-01T11:32:26.274Z,18.20
2022-12-01T11:35:23.181Z,17.85
2022-12-01T11:38:28.263Z,17.60
2022-12-01T11:40:56.049Z,18.58
2022-12-01T11:43:27.817Z,17.77
2022-12-01T11:45:57.063Z,16.83
2022-12-01T11:48:26.744Z,17.23
2022-12-01T11:51:29.840Z,16.70
2022-12-01T11:54:21.225Z,18.25
2022-12-01T11:56:56.166Z,17.48
2022-12-01T11:59:30.901Z,19.07
2022-12-01T12:02:04.386Z,17.90
2022-12-01T12:04:36.723Z,16.60
2022-12-01T12:07:32.118Z,16.83
2022-12-01T12:10:19.730Z,18.42
2022-12-01T12:13:16.450Z,16.77
2022-12-01T12:16:07.717Z,16.30
2022-12-01T12:18:43.818Z,16.27
2022-12-01T12:21:27.729Z,17.85
2022-12-01T12:24:11.909Z,16.88
2022-12-01T12:26:51.951Z,19.00
2022-12-01T12:29:33.217Z,18.02
2022-12-01T12:31:59.463Z,18.20
2022-12-01T12:34:35.740Z,17.38
2022-12-01T12:37:30.919Z,17.48
2022-12-01T12:40:26.583Z,15.87
2022-12-01T12:43:04.921Z,16.95
2022-12-01T12:46:00.892Z,15.88
2022-12-01T12:49:19.605Z,15.57
2022-12-01T12:51:52.792Z,15.75
2022-12-01T12:54:31.424Z,15.20
2022-12-01T12:57:06.251Z,15.55
2022-12-01T12:59:48.859Z,14.43
2022-12-01T13:02:27.759Z,14.23
2022-12-01T13:05:03.029Z,14.13
2022-12-01T13:07:51.313Z,12.27
2022-12-01T13:10:44.323Z,12.55
2022-12-01T13:13:37.515Z,12.88
2022-12-01T13:16:06.900Z,13.50
2022-12-01T13:18:49.413Z,14.98
2022-12-01T13:21:21.135Z,16.30
2022-12-01T13:23:49.683Z,15.65
2022-12-01T13:26:18.676Z,15.82
2022-12-01T13:28:51.733Z,16.35
2022-12-01T13:31:20.105Z,13.80
2022-12-01T13:33:58.633Z,14.93
2022-12-01T13:39:23.511Z,15.18
2022-12-01T13:42:01.930Z,14.35
2022-12-01T13:44:30.999Z,14.48
2022-12-01T13:47:25.360Z,14.43
2022-12-01T13:49:52.973Z,15.65
2022-12-01T13:52:22.164Z,14.30
2022-12-01T13:55:02.684Z,12.82
2022-12-01T13:57:31.865Z,13.60
2022-12-01T13:59:58.169Z,15.43
2022-12-01T14:02:26.591Z,10.23
2022-12-01T14:04:53.112Z,13.30
2022-12-01T14:07:34.992Z,11.82
2022-12-01T14:10:23.547Z,12.98
2022-12-01T14:12:51.370Z,13.38
2022-12-01T14:15:29.256Z,14.55
2022-12-01T14:18:17.737Z,14.55
2022-12-01T14:20:46.370Z,15.18
2022-12-01T14:23:17.006Z,14.10
2022-12-01T14:26:01.557Z,15.63
2022-12-01T14:28:55.708Z,14.60
2022-12-01T14:31:23.873Z,14.48
2022-12-01T14:34:00.338Z,14.20
2022-12-01T14:36:35.984Z,14.15
2022-12-01T14:39:10.902Z,14.27
2022-12-01T14:41:45.848Z,13.52
2022-12-01T14:44:21.076Z,14.48
2022-12-01T14:47:05.033Z,15.40
2022-12-01T14:49:49.968Z,13.20
2022-12-01T14:52:28.418Z,14.15
2022-12-01T14:55:12.001Z,12.50
2022-12-01T14:57:42.025Z,11.98
2022-12-01T15:00:29.792Z,15.15
2022-12-01T15:03:00.296Z,11.90
2022-12-01T15:05:32.513Z,13.05
2022-12-01T15:08:40.342Z,13.20
2022-12-01T15:11:07.882Z,13.55
2022-12-01T15:13:55.219Z,13.32
2022-12-01T15:16:28.769Z,13.40
2022-12-01T15:18:55.241Z,12.90
2022-12-01T15:21:30.701Z,12.98
2022-12-01T15:23:57.026Z,13.40
2022-12-01T15:26:27.186Z,12.55
2022-12-01T15:29:14.571Z,12.93
2022-12-01T15:31:43.759Z,15.02
2022-12-01T15:34:20.868Z,12.52
2022-12-01T15:36:48.397Z,13.50
2022-12-01T15:39:21.272Z,12.73
2022-12-01T15:41:53.755Z,12.33
2022-12-01T15:44:34.943Z,13.88
2022-12-01T15:47:32.442Z,12.05
2022-12-01T15:49:58.855Z,13.13
2022-12-01T15:52:25.287Z,14.48
2022-12-01T15:54:52.191Z,14.18
2022-12-01T15:57:21.352Z,14.35
2022-12-01T15:59:53.673Z,13.55
2022-12-01T16:02:20.026Z,13.27
2022-12-01T16:04:47.638Z,14.93
2022-12-01T16:07:14.586Z,13.07
2022-12-01T16:10:02.581Z,14.05
2022-12-01T16:12:34.682Z,13.57
2022-12-01T16:15:01.011Z,13.65
2022-12-01T16:17:40.134Z,13.30
2022-12-01T16:20:30.975Z,13.10
2022-12-01T16:23:00.762Z,13.23
2022-12-01T16:25:34.795Z,14.18
2022-12-01T16:28:02.030Z,12.68
2022-12-01T16:30:37.292Z,14.23
2022-12-01T16:33:06.902Z,11.53
2022-12-01T16:35:34.246Z,14.63
2022-12-01T16:38:11.777Z,15.60
2022-12-01T16:40:41.450Z,14.77
2022-12-01T16:43:23.263Z,13.95
2022-12-01T16:45:52.946Z,14.70
2022-12-01T16:48:20.303Z,15.30
2022-12-01T16:50:50.850Z,14.07
2022-12-01T16:53:17.575Z,13.50
2022-12-01T16:55:54.573Z,15.55
2022-12-01T16:58:21.088Z,18.53
2022-12-01T17:00:52.474Z,16.05
2022-12-01T17:03:21.983Z,17.25
2022-12-01T17:05:49.151Z,17.40
2022-12-01T17:08:16.483Z,18.30
2022-12-01T17:10:44.738Z,17.80
2022-12-01T17:13:11.381Z,17.48
2022-12-01T17:15:45.899Z,17.08
2022-12-01T17:18:13.824Z,17.10
2022-12-01T17:20:40.316Z,16.40
2022-12-01T17:23:06.961Z,17.60
2022-12-01T17:25:33.482Z,17.13
2022-12-01T17:27:59.810Z,17.10
2022-12-01T17:30:26.204Z,18.83
2022-12-01T17:32:52.586Z,17.30
2022-12-01T17:35:19.202Z,15.07
2022-12-01T17:37:45.506Z,15.60
2022-12-01T17:40:15.734Z,14.75
2022-12-01T17:42:47.001Z,16.10
2022-12-01T17:45:17.512Z,14.70
2022-12-01T17:47:43.884Z,14.73
2022-12-01T17:50:10.663Z,14.60
2022-12-01T17:52:37.049Z,16.13
2022-12-01T17:55:04.174Z,15.82
2022-12-01T17:57:30.535Z,15.15
2022-12-01T17:59:56.965Z,14.80
2022-12-01T18:02:23.603Z,15.38
2022-12-01T18:04:50.399Z,15.98
2022-12-01T18:07:16.959Z,16.42
2022-12-01T18:09:43.324Z,14.88
2022-12-01T18:12:09.697Z,14.37
2022-12-01T18:14:37.456Z,14.38
2022-12-01T18:17:05.170Z,14.38
2022-12-01T18:19:31.596Z,15.95
2022-12-01T18:21:58.011Z,14.50
2022-12-01T18:24:24.374Z,14.07
2022-12-01T18:26:50.807Z,14.60
2022-12-01T18:29:25.610Z,15.95
2022-12-01T18:31:56.358Z,14.52
2022-12-01T18:34:23.208Z,15.55
2022-12-01T18:36:49.984Z,15.93
2022-12-01T18:39:16.529Z,14.45
2022-12-01T18:41:43.092Z,14.15
2022-12-01T18:44:09.647Z,15.57
2022-12-01T18:46:36.266Z,16.60
2022-12-01T18:49:04.546Z,16.50
2022-12-01T18:51:33.046Z,16.23
2022-12-01T18:54:01.226Z,16.60
2022-12-01T18:56:28.549Z,15.75
2022-12-01T18:58:56.346Z,16.45
2022-12-01T19:01:28.704Z,15.70
2022-12-01T19:03:55.808Z,14.63
2022-12-01T19:06:22.906Z,15.48
2022-12-01T19:08:49.431Z,14.70
2022-12-01T19:11:16.738Z,16.33
2022-12-01T19:13:43.203Z,16.87
2022-12-01T19:16:14.337Z,17.00
2022-12-01T19:18:41.593Z,17.13
2022-12-01T19:21:09.589Z,17.52
2022-12-01T19:23:36.365Z,16.60
2022-12-01T19:26:07.434Z,15.70
2022-12-01T19:28:35.292Z,17.25
2022-12-01T19:31:07.007Z,16.50
2022-12-01T19:33:33.407Z,16.33
2022-12-01T19:36:07.239Z,15.85
2022-12-01T19:38:33.617Z,15.13
2022-12-01T19:41:00.100Z,18.00
2022-12-01T19:43:26.480Z,16.75
2022-12-01T19:45:52.896Z,15.55
2022-12-01T19:48:19.295Z,17.92
2022-12-01T19:50:45.672Z,18.17
2022-12-01T19:53:11.990Z,16.23
2022-12-01T19:55:38.793Z,17.02
2022-12-01T19:58:05.885Z,15.73
2022-12-01T20:00:32.406Z,15.82
2022-12-01T20:03:00.072Z,16.83
2022-12-01T20:05:26.495Z,16.50
2022-12-01T20:07:52.873Z,16.98
2022-12-01T20:10:20.343Z,17.85
2022-12-01T20:12:47.477Z,17.92
2022-12-01T20:15:14.858Z,16.37
2022-12-01T20:17:41.770Z,17.55
2022-12-01T20:20:09.361Z,18.83
2022-12-01T20:22:36.751Z,18.20
2022-12-01T20:25:04.506Z,17.50
2022-12-01T20:27:31.697Z,17.37
2022-12-01T20:29:58.118Z,16.80
2022-12-01T20:32:24.740Z,18.23
2022-12-01T20:34:51.501Z,18.15
2022-12-01T20:37:18.077Z,16.90
2022-12-01T20:39:44.448Z,19.17
2022-12-01T20:42:11.309Z,17.00
2022-12-01T20:44:37.958Z,17.52
2022-12-01T20:47:04.415Z,17.85
2022-12-01T20:49:30.761Z,17.63
2022-12-01T20:51:57.304Z,16.83
2022-12-01T20:54:28.447Z,16.60
2022-12-01T20:56:55.559Z,16.30
2022-12-01T20:59:21.916Z,17.48
2022-12-01T21:01:48.350Z,17.42
2022-12-01T21:04:14.716Z,16.10
2022-12-01T21:06:41.098Z,17.60
2022-12-01T21:09:08.301Z,17.42
2022-12-01T21:12:04.936Z,16.30
2022-12-01T21:15:02.319Z,17.65
2022-12-01T21:17:35.303Z,17.47
2022-12-01T21:20:08.242Z,16.65
2022-12-01T21:22:36.025Z,18.38
2022-12-01T21:25:11.882Z,18.55
2022-12-01T21:27:38.318Z,17.45
2022-12-01T21:30:29.370Z,18.30
2022-12-01T21:33:13.164Z,17.27
2022-12-01T21:35:39.541Z,17.08
2022-12-01T21:38:12.294Z,17.63
2022-12-01T21:40:42.871Z,17.42
2022-12-01T21:43:20.331Z,16.83
2022-12-01T21:45:55.330Z,17.33
2022-12-01T21:48:25.571Z,16.33
2022-12-01T21:50:59.422Z,14.27
2022-12-01T21:53:32.303Z,16.95
2022-12-01T21:55:58.646Z,16.33
2022-12-01T21:58:30.516Z,15.85
2022-12-01T22:00:58.894Z,16.35
2022-12-01T22:03:29.798Z,16.88
2022-12-01T22:06:28.695Z,16.25
2022-12-01T22:08:57.760Z,17.20
2022-12-01T22:11:28.852Z,16.33
2022-12-01T22:14:24.498Z,16.38
2022-12-01T22:17:14.501Z,16.88
2022-12-01T22:19:45.684Z,16.92
2022-12-01T22:22:27.295Z,14.97
2022-12-01T22:25:01.719Z,15.32
2022-12-01T22:27:37.504Z,15.52
2022-12-01T22:30:06.535Z,15.52
2022-12-01T22:32:35.946Z,16.42
2022-12-01T22:35:20.779Z,15.43
2022-12-01T22:37:52.306Z,15.10
2022-12-01T22:40:49.249Z,17.08
2022-12-01T22:43:15.614Z,16.92
2022-12-01T22:45:43.791Z,16.13
2022-12-01T22:48:39.727Z,18.00
2022-12-01T22:51:21.342Z,17.13
2022-12-01T22:53:48.485Z,17.90
2022-12-01T22:56:36.426Z,19.92
2022-12-01T22:59:14.617Z,17.20
2022-12-01T23:01:48.463Z,17.97
2022-12-01T23:04:22.293Z,17.02
2022-12-01T23:06:57.129Z,17.70
2022-12-01T23:09:30.998Z,19.05
2022-12-01T23:12:09.645Z,19.25
2022-12-01T23:14:49.518Z,18.30
2022-12-01T23:17:37.025Z,18.05
2022-12-01T23:20:27.865Z,17.67
2022-12-01T23:22:56.164Z,18.13
2022-12-01T23:25:24.076Z,18.45
2022-12-01T23:27:52.515Z,18.50
2022-12-01T23:30:21.245Z,20.05
2022-12-01T23:32:57.540Z,20.73
2022-12-01T23:35:23.920Z,19.63
2022-12-01T23:37:50.438Z,17.27
2022-12-01T23:40:22.372Z,19.03
2022-12-01T23:42:48.920Z,18.55
2022-12-01T23:45:22.831Z,22.02
2022-12-01T23:47:50.048Z,20.35
2022-12-01T23:50:23.074Z,20.75
2022-12-01T23:52:49.469Z,22.77
2022-12-01T23:55:30.859Z,21.25
2022-12-01T23:57:58.708Z,20.50
